sensor_id;sensor_type;location;lat;lon;timestamp;temperature;humidity
54960;DHT22;40860;51.710;8.736;2023-02-07T00:02:11;-1.10;99.90
54960;DHT22;40860;51.710;8.736;2023-02-07T00:06:18;-1.10;99.90
54960;DHT22;40860;51.710;8.736;2023-02-07T00:10:29;-1.00;99.90
54960;DHT22;40860;51.710;8.736;2023-02-07T00:15:08;-0.90;99.90
54960;DHT22;40860;51.710;8.736;2023-02-07T00:19:33;-0.80;99.90
54960;DHT22;40860;51.710;8.736;2023-02-07T00:23:42;-0.80;99.90
54960;DHT22;40860;51.710;8.736;2023-02-07T00:27:48;-0.80;99.90
54960;DHT22;40860;51.710;8.736;2023-02-07T00:31:56;-0.80;99.90
54960;DHT22;40860;51.710;8.736;2023-02-07T00:36:04;-0.90;99.90
54960;DHT22;40860;51.710;8.736;2023-02-07T00:40:10;-1.00;99.90
54960;DHT22;40860;51.710;8.736;2023-02-07T00:44:19;-1.00;99.90
54960;DHT22;40860;51.710;8.736;2023-02-07T00:48:25;-0.90;99.90
54960;DHT22;40860;51.710;8.736;2023-02-07T00:52:33;-0.90;99.90
54960;DHT22;40860;51.710;8.736;2023-02-07T00:56:45;-0.90;99.90
54960;DHT22;40860;51.710;8.736;2023-02-07T01:00:56;-1.00;99.90
54960;DHT22;40860;51.710;8.736;2023-02-07T01:05:06;-1.10;99.90
54960;DHT22;40860;51.710;8.736;2023-02-07T01:09:11;-1.10;99.90
54960;DHT22;40860;51.710;8.736;2023-02-07T01:13:17;-1.20;99.90
54960;DHT22;40860;51.710;8.736;2023-02-07T01:17:26;-1.40;99.90
54960;DHT22;40860;51.710;8.736;2023-02-07T01:21:29;-1.40;99.90
54960;DHT22;40860;51.710;8.736;2023-02-07T01:25:47;-1.50;99.90
54960;DHT22;40860;51.710;8.736;2023-02-07T01:29:58;-1.60;99.90
54960;DHT22;40860;51.710;8.736;2023-02-07T01:34:01;-1.60;99.90
54960;DHT22;40860;51.710;8.736;2023-02-07T01:38:06;-1.50;99.90
54960;DHT22;40860;51.710;8.736;2023-02-07T01:42:17;-1.40;99.90
54960;DHT22;40860;51.710;8.736;2023-02-07T01:46:23;-1.30;99.90
54960;DHT22;40860;51.710;8.736;2023-02-07T01:50:34;-1.40;99.90
54960;DHT22;40860;51.710;8.736;2023-02-07T01:54:39;-1.50;99.90
54960;DHT22;40860;51.710;8.736;2023-02-07T01:58:44;-1.60;99.90
54960;DHT22;40860;51.710;8.736;2023-02-07T02:02:56;-1.60;99.90
54960;DHT22;40860;51.710;8.736;2023-02-07T02:06:59;-1.80;99.90
54960;DHT22;40860;51.710;8.736;2023-02-07T02:11:20;-1.80;99.90
54960;DHT22;40860;51.710;8.736;2023-02-07T02:15:47;-1.70;99.90
54960;DHT22;40860;51.710;8.736;2023-02-07T02:20:44;-1.80;99.90
54960;DHT22;40860;51.710;8.736;2023-02-07T02:25:12;-1.90;99.90
54960;DHT22;40860;51.710;8.736;2023-02-07T02:33:54;-1.90;99.90
54960;DHT22;40860;51.710;8.736;2023-02-07T02:38:08;-1.90;99.90
54960;DHT22;40860;51.710;8.736;2023-02-07T02:42:21;-1.80;99.90
54960;DHT22;40860;51.710;8.736;2023-02-07T02:46:27;-1.90;99.90
54960;DHT22;40860;51.710;8.736;2023-02-07T02:50:36;-1.90;99.90
54960;DHT22;40860;51.710;8.736;2023-02-07T02:54:41;-1.80;99.90
54960;DHT22;40860;51.710;8.736;2023-02-07T02:59:21;-1.80;99.90
54960;DHT22;40860;51.710;8.736;2023-02-07T03:03:41;-1.90;99.90
54960;DHT22;40860;51.710;8.736;2023-02-07T03:07:57;-1.90;99.90
54960;DHT22;40860;51.710;8.736;2023-02-07T03:12:14;-1.90;99.90
54960;DHT22;40860;51.710;8.736;2023-02-07T03:16:21;-2.10;99.90
54960;DHT22;40860;51.710;8.736;2023-02-07T03:20:29;-2.00;99.90
54960;DHT22;40860;51.710;8.736;2023-02-07T03:24:40;-1.90;99.90
54960;DHT22;40860;51.710;8.736;2023-02-07T03:29:24;-2.00;99.90
54960;DHT22;40860;51.710;8.736;2023-02-07T03:39:09;-1.90;99.90
54960;DHT22;40860;51.710;8.736;2023-02-07T03:43:24;-2.00;99.90
54960;DHT22;40860;51.710;8.736;2023-02-07T03:47:42;-2.00;99.90
54960;DHT22;40860;51.710;8.736;2023-02-07T03:52:04;-2.10;99.90
54960;DHT22;40860;51.710;8.736;2023-02-07T03:56:26;-1.90;99.90
54960;DHT22;40860;51.710;8.736;2023-02-07T04:00:41;-1.90;99.90
54960;DHT22;40860;51.710;8.736;2023-02-07T04:04:54;-2.00;99.90
54960;DHT22;40860;51.710;8.736;2023-02-07T04:09:10;-1.90;99.90
54960;DHT22;40860;51.710;8.736;2023-02-07T04:14:16;-2.00;99.90
54960;DHT22;40860;51.710;8.736;2023-02-07T04:18:25;-2.20;99.90
54960;DHT22;40860;51.710;8.736;2023-02-07T04:22:28;-2.20;99.90
54960;DHT22;40860;51.710;8.736;2023-02-07T04:26:31;-2.30;99.90
54960;DHT22;40860;51.710;8.736;2023-02-07T04:30:43;-2.30;99.90
54960;DHT22;40860;51.710;8.736;2023-02-07T04:34:47;-2.40;99.90
54960;DHT22;40860;51.710;8.736;2023-02-07T04:38:50;-2.40;99.90
54960;DHT22;40860;51.710;8.736;2023-02-07T04:42:53;-2.40;99.90
54960;DHT22;40860;51.710;8.736;2023-02-07T04:46:56;-2.40;99.90
54960;DHT22;40860;51.710;8.736;2023-02-07T04:51:03;-2.30;99.90
54960;DHT22;40860;51.710;8.736;2023-02-07T04:55:06;-2.40;99.90
54960;DHT22;40860;51.710;8.736;2023-02-07T04:59:09;-2.30;99.90
54960;DHT22;40860;51.710;8.736;2023-02-07T05:03:12;-2.30;99.90
54960;DHT22;40860;51.710;8.736;2023-02-07T05:07:16;-2.30;99.90
54960;DHT22;40860;51.710;8.736;2023-02-07T05:11:19;-2.30;99.90
54960;DHT22;40860;51.710;8.736;2023-02-07T05:15:22;-2.30;99.90
54960;DHT22;40860;51.710;8.736;2023-02-07T05:19:26;-2.20;99.90
54960;DHT22;40860;51.710;8.736;2023-02-07T05:23:32;-2.10;99.90
54960;DHT22;40860;51.710;8.736;2023-02-07T05:27:34;-2.10;99.90
54960;DHT22;40860;51.710;8.736;2023-02-07T05:31:37;-2.10;99.90
54960;DHT22;40860;51.710;8.736;2023-02-07T05:35:59;-2.10;99.90
54960;DHT22;40860;51.710;8.736;2023-02-07T05:40:20;-2.10;99.90
54960;DHT22;40860;51.710;8.736;2023-02-07T05:45:19;-2.00;99.90
54960;DHT22;40860;51.710;8.736;2023-02-07T05:49:57;-2.00;99.90
54960;DHT22;40860;51.710;8.736;2023-02-07T06:00:00;-2.10;99.90
54960;DHT22;40860;51.710;8.736;2023-02-07T06:04:38;-2.20;99.90
54960;DHT22;40860;51.710;8.736;2023-02-07T06:08:41;-2.20;99.90
54960;DHT22;40860;51.710;8.736;2023-02-07T06:13:14;-2.10;99.90
54960;DHT22;40860;51.710;8.736;2023-02-07T06:17:52;-2.20;99.90
54960;DHT22;40860;51.710;8.736;2023-02-07T06:22:07;-2.10;99.90
54960;DHT22;40860;51.710;8.736;2023-02-07T06:26:22;-2.10;99.90
54960;DHT22;40860;51.710;8.736;2023-02-07T06:30:29;-2.10;99.90
54960;DHT22;40860;51.710;8.736;2023-02-07T06:34:47;-2.10;99.90
54960;DHT22;40860;51.710;8.736;2023-02-07T06:38:53;-2.20;99.90
54960;DHT22;40860;51.710;8.736;2023-02-07T06:42:59;-2.30;99.90
54960;DHT22;40860;51.710;8.736;2023-02-07T06:47:18;-2.20;99.90
54960;DHT22;40860;51.710;8.736;2023-02-07T06:51:31;-2.20;99.90
54960;DHT22;40860;51.710;8.736;2023-02-07T06:55:38;-2.20;99.90
54960;DHT22;40860;51.710;8.736;2023-02-07T06:59:50;-2.20;99.90
54960;DHT22;40860;51.710;8.736;2023-02-07T07:04:11;-2.10;99.90
54960;DHT22;40860;51.710;8.736;2023-02-07T07:08:28;-2.20;99.90
54960;DHT22;40860;51.710;8.736;2023-02-07T07:12:58;-2.20;99.90
54960;DHT22;40860;51.710;8.736;2023-02-07T07:17:14;-2.20;99.90
54960;DHT22;40860;51.710;8.736;2023-02-07T07:21:31;-2.30;99.90
54960;DHT22;40860;51.710;8.736;2023-02-07T07:25:58;-2.30;99.90
54960;DHT22;40860;51.710;8.736;2023-02-07T07:30:11;-2.40;99.90
54960;DHT22;40860;51.710;8.736;2023-02-07T07:34:23;-2.40;99.90
54960;DHT22;40860;51.710;8.736;2023-02-07T07:38:38;-2.20;99.90
54960;DHT22;40860;51.710;8.736;2023-02-07T07:42:48;-2.00;99.90
54960;DHT22;40860;51.710;8.736;2023-02-07T07:47:12;-1.70;99.90
54960;DHT22;40860;51.710;8.736;2023-02-07T07:51:20;-1.40;99.90
54960;DHT22;40860;51.710;8.736;2023-02-07T07:55:37;-1.30;99.90
54960;DHT22;40860;51.710;8.736;2023-02-07T07:59:42;-1.30;99.90
54960;DHT22;40860;51.710;8.736;2023-02-07T08:03:47;-1.20;99.90
54960;DHT22;40860;51.710;8.736;2023-02-07T08:07:56;-1.20;99.90
54960;DHT22;40860;51.710;8.736;2023-02-07T08:12:12;-1.30;99.90
54960;DHT22;40860;51.710;8.736;2023-02-07T08:16:18;-1.30;99.90
54960;DHT22;40860;51.710;8.736;2023-02-07T08:20:22;-1.30;99.90
54960;DHT22;40860;51.710;8.736;2023-02-07T08:24:24;-1.10;99.90
54960;DHT22;40860;51.710;8.736;2023-02-07T08:28:32;-1.00;99.90
54960;DHT22;40860;51.710;8.736;2023-02-07T08:32:39;-0.90;99.90
54960;DHT22;40860;51.710;8.736;2023-02-07T08:36:42;-0.60;99.90
54960;DHT22;40860;51.710;8.736;2023-02-07T08:40:45;-0.30;99.90
54960;DHT22;40860;51.710;8.736;2023-02-07T08:44:49;0.20;99.90
54960;DHT22;40860;51.710;8.736;2023-02-07T08:48:52;0.60;99.90
54960;DHT22;40860;51.710;8.736;2023-02-07T08:52:55;1.00;99.90
54960;DHT22;40860;51.710;8.736;2023-02-07T08:56:58;1.20;99.90
54960;DHT22;40860;51.710;8.736;2023-02-07T09:01:03;1.40;99.90
54960;DHT22;40860;51.710;8.736;2023-02-07T09:05:08;1.60;99.50
54960;DHT22;40860;51.710;8.736;2023-02-07T09:09:11;1.80;98.80
54960;DHT22;40860;51.710;8.736;2023-02-07T09:13:14;1.80;97.80
54960;DHT22;40860;51.710;8.736;2023-02-07T09:17:18;1.80;98.50
54960;DHT22;40860;51.710;8.736;2023-02-07T09:21:21;1.80;97.70
54960;DHT22;40860;51.710;8.736;2023-02-07T09:25:24;1.80;97.70
54960;DHT22;40860;51.710;8.736;2023-02-07T09:29:27;1.70;97.10
54960;DHT22;40860;51.710;8.736;2023-02-07T09:33:31;1.70;97.30
54960;DHT22;40860;51.710;8.736;2023-02-07T09:37:34;1.90;97.00
54960;DHT22;40860;51.710;8.736;2023-02-07T09:41:58;2.30;96.70
54960;DHT22;40860;51.710;8.736;2023-02-07T09:46:09;2.70;95.70
54960;DHT22;40860;51.710;8.736;2023-02-07T09:50:19;3.20;96.20
54960;DHT22;40860;51.710;8.736;2023-02-07T09:54:32;3.60;93.60
54960;DHT22;40860;51.710;8.736;2023-02-07T09:58:42;3.80;92.70
54960;DHT22;40860;51.710;8.736;2023-02-07T10:02:53;4.40;93.00
54960;DHT22;40860;51.710;8.736;2023-02-07T10:07:03;4.60;91.60
54960;DHT22;40860;51.710;8.736;2023-02-07T10:11:14;4.30;90.50
54960;DHT22;40860;51.710;8.736;2023-02-07T10:15:29;4.30;91.00
54960;DHT22;40860;51.710;8.736;2023-02-07T10:19:48;4.50;91.30
54960;DHT22;40860;51.710;8.736;2023-02-07T10:24:34;4.40;91.00
54960;DHT22;40860;51.710;8.736;2023-02-07T10:29:08;4.30;90.80
54960;DHT22;40860;51.710;8.736;2023-02-07T10:33:23;4.00;90.70
54960;DHT22;40860;51.710;8.736;2023-02-07T10:37:43;3.90;90.10
54960;DHT22;40860;51.710;8.736;2023-02-07T10:41:49;4.00;90.10
54960;DHT22;40860;51.710;8.736;2023-02-07T10:46:07;4.00;90.30
54960;DHT22;40860;51.710;8.736;2023-02-07T10:50:21;4.10;90.30
54960;DHT22;40860;51.710;8.736;2023-02-07T10:54:49;4.10;89.20
54960;DHT22;40860;51.710;8.736;2023-02-07T10:59:22;4.20;90.00
54960;DHT22;40860;51.710;8.736;2023-02-07T11:03:41;4.20;86.70
54960;DHT22;40860;51.710;8.736;2023-02-07T11:07:56;4.20;87.40
54960;DHT22;40860;51.710;8.736;2023-02-07T11:12:13;4.30;86.30
54960;DHT22;40860;51.710;8.736;2023-02-07T11:16:19;4.40;84.80
54960;DHT22;40860;51.710;8.736;2023-02-07T11:20:48;4.40;84.30
54960;DHT22;40860;51.710;8.736;2023-02-07T11:25:00;4.40;83.60
54960;DHT22;40860;51.710;8.736;2023-02-07T11:29:23;4.40;83.60
54960;DHT22;40860;51.710;8.736;2023-02-07T11:33:29;4.60;84.90
54960;DHT22;40860;51.710;8.736;2023-02-07T11:37:34;4.70;83.30
54960;DHT22;40860;51.710;8.736;2023-02-07T11:41:37;4.90;83.10
54960;DHT22;40860;51.710;8.736;2023-02-07T11:45:43;4.90;79.00
54960;DHT22;40860;51.710;8.736;2023-02-07T11:49:49;4.90;80.50
54960;DHT22;40860;51.710;8.736;2023-02-07T11:53:55;4.70;78.00
54960;DHT22;40860;51.710;8.736;2023-02-07T11:58:07;4.80;79.50
54960;DHT22;40860;51.710;8.736;2023-02-07T12:02:18;4.90;79.50
54960;DHT22;40860;51.710;8.736;2023-02-07T12:06:33;4.90;77.70
54960;DHT22;40860;51.710;8.736;2023-02-07T12:10:40;4.80;75.30
54960;DHT22;40860;51.710;8.736;2023-02-07T12:14:54;4.80;76.10
54960;DHT22;40860;51.710;8.736;2023-02-07T12:19:16;4.80;76.10
54960;DHT22;40860;51.710;8.736;2023-02-07T12:24:07;4.80;73.70
54960;DHT22;40860;51.710;8.736;2023-02-07T12:29:06;4.80;75.80
54960;DHT22;40860;51.710;8.736;2023-02-07T12:33:30;4.90;75.40
54960;DHT22;40860;51.710;8.736;2023-02-07T12:37:42;5.00;76.70
54960;DHT22;40860;51.710;8.736;2023-02-07T12:42:04;5.10;73.70
54960;DHT22;40860;51.710;8.736;2023-02-07T12:46:57;5.10;74.30
54960;DHT22;40860;51.710;8.736;2023-02-07T12:51:27;5.10;72.50
54960;DHT22;40860;51.710;8.736;2023-02-07T12:55:46;5.10;71.90
54960;DHT22;40860;51.710;8.736;2023-02-07T13:00:44;5.20;73.50
54960;DHT22;40860;51.710;8.736;2023-02-07T13:09:59;5.10;68.10
54960;DHT22;40860;51.710;8.736;2023-02-07T13:14:22;5.20;68.70
54960;DHT22;40860;51.710;8.736;2023-02-07T13:18:35;5.30;68.30
54960;DHT22;40860;51.710;8.736;2023-02-07T13:22:45;5.20;66.70
54960;DHT22;40860;51.710;8.736;2023-02-07T13:27:01;5.30;66.60
54960;DHT22;40860;51.710;8.736;2023-02-07T13:31:32;5.30;67.60
54960;DHT22;40860;51.710;8.736;2023-02-07T13:36:06;5.30;69.20
54960;DHT22;40860;51.710;8.736;2023-02-07T13:40:34;5.30;65.80
54960;DHT22;40860;51.710;8.736;2023-02-07T13:50:56;5.40;64.80
54960;DHT22;40860;51.710;8.736;2023-02-07T13:55:33;5.40;63.40
54960;DHT22;40860;51.710;8.736;2023-02-07T13:59:44;5.40;65.30
54960;DHT22;40860;51.710;8.736;2023-02-07T14:04:16;5.40;63.90
54960;DHT22;40860;51.710;8.736;2023-02-07T14:08:41;5.30;65.30
54960;DHT22;40860;51.710;8.736;2023-02-07T14:13:05;5.40;62.70
54960;DHT22;40860;51.710;8.736;2023-02-07T14:18:05;5.40;61.70
54960;DHT22;40860;51.710;8.736;2023-02-07T14:23:11;5.40;61.70
54960;DHT22;40860;51.710;8.736;2023-02-07T14:27:38;5.40;61.70
54960;DHT22;40860;51.710;8.736;2023-02-07T14:36:50;5.50;60.20
54960;DHT22;40860;51.710;8.736;2023-02-07T14:41:02;5.50;61.50
54960;DHT22;40860;51.710;8.736;2023-02-07T14:45:19;5.50;60.90
54960;DHT22;40860;51.710;8.736;2023-02-07T14:49:45;5.50;62.20
54960;DHT22;40860;51.710;8.736;2023-02-07T14:54:02;5.50;61.60
54960;DHT22;40860;51.710;8.736;2023-02-07T14:58:07;5.50;61.80
54960;DHT22;40860;51.710;8.736;2023-02-07T15:02:33;5.40;61.70
54960;DHT22;40860;51.710;8.736;2023-02-07T15:06:39;5.40;62.80
54960;DHT22;40860;51.710;8.736;2023-02-07T15:10:51;5.40;61.20
54960;DHT22;40860;51.710;8.736;2023-02-07T15:15:09;5.30;61.00
54960;DHT22;40860;51.710;8.736;2023-02-07T15:19:32;5.30;61.00
54960;DHT22;40860;51.710;8.736;2023-02-07T15:23:54;5.30;60.70
54960;DHT22;40860;51.710;8.736;2023-02-07T15:28:23;5.20;60.60
54960;DHT22;40860;51.710;8.736;2023-02-07T15:32:49;5.20;62.00
54960;DHT22;40860;51.710;8.736;2023-02-07T15:37:14;5.10;63.30
54960;DHT22;40860;51.710;8.736;2023-02-07T15:41:39;5.00;65.20
54960;DHT22;40860;51.710;8.736;2023-02-07T15:45:58;5.00;67.10
54960;DHT22;40860;51.710;8.736;2023-02-07T15:50:18;4.90;68.60
54960;DHT22;40860;51.710;8.736;2023-02-07T15:54:27;4.80;70.00
54960;DHT22;40860;51.710;8.736;2023-02-07T15:58:51;4.70;70.80
54960;DHT22;40860;51.710;8.736;2023-02-07T16:03:16;4.60;72.10
54960;DHT22;40860;51.710;8.736;2023-02-07T16:08:26;4.50;72.80
54960;DHT22;40860;51.710;8.736;2023-02-07T16:12:50;4.30;73.70
54960;DHT22;40860;51.710;8.736;2023-02-07T16:16:59;4.20;74.80
54960;DHT22;40860;51.710;8.736;2023-02-07T16:21:20;4.00;75.90
54960;DHT22;40860;51.710;8.736;2023-02-07T16:25:34;3.90;77.10
54960;DHT22;40860;51.710;8.736;2023-02-07T16:30:18;3.70;78.20
54960;DHT22;40860;51.710;8.736;2023-02-07T16:34:30;3.60;79.40
54960;DHT22;40860;51.710;8.736;2023-02-07T16:39:21;3.40;80.30
54960;DHT22;40860;51.710;8.736;2023-02-07T16:43:42;3.30;81.50
54960;DHT22;40860;51.710;8.736;2023-02-07T16:48:24;3.10;82.70
54960;DHT22;40860;51.710;8.736;2023-02-07T16:52:38;3.00;83.90
54960;DHT22;40860;51.710;8.736;2023-02-07T16:56:53;2.90;85.00
54960;DHT22;40860;51.710;8.736;2023-02-07T17:01:16;2.80;86.20
54960;DHT22;40860;51.710;8.736;2023-02-07T17:05:47;2.70;87.10
54960;DHT22;40860;51.710;8.736;2023-02-07T17:09:56;2.60;88.10
54960;DHT22;40860;51.710;8.736;2023-02-07T17:14:33;2.50;88.80
54960;DHT22;40860;51.710;8.736;2023-02-07T17:19:31;2.40;89.70
54960;DHT22;40860;51.710;8.736;2023-02-07T17:23:54;2.20;90.10
54960;DHT22;40860;51.710;8.736;2023-02-07T17:28:16;2.10;90.50
54960;DHT22;40860;51.710;8.736;2023-02-07T17:32:50;1.90;91.00
54960;DHT22;40860;51.710;8.736;2023-02-07T17:37:01;1.70;91.70
54960;DHT22;40860;51.710;8.736;2023-02-07T17:41:07;1.50;92.20
54960;DHT22;40860;51.710;8.736;2023-02-07T17:45:11;1.30;92.70
54960;DHT22;40860;51.710;8.736;2023-02-07T17:49:29;1.20;93.00
54960;DHT22;40860;51.710;8.736;2023-02-07T17:58:42;0.90;93.90
54960;DHT22;40860;51.710;8.736;2023-02-07T18:02:45;0.80;94.00
54960;DHT22;40860;51.710;8.736;2023-02-07T18:07:02;0.80;94.40
54960;DHT22;40860;51.710;8.736;2023-02-07T18:11:48;0.80;94.60
54960;DHT22;40860;51.710;8.736;2023-02-07T18:16:45;0.70;94.90
54960;DHT22;40860;51.710;8.736;2023-02-07T18:21:04;0.70;94.90
54960;DHT22;40860;51.710;8.736;2023-02-07T18:25:51;0.60;95.20
54960;DHT22;40860;51.710;8.736;2023-02-07T18:30:20;0.50;95.50
54960;DHT22;40860;51.710;8.736;2023-02-07T18:34:26;0.40;95.80
54960;DHT22;40860;51.710;8.736;2023-02-07T18:38:49;0.30;96.10
54960;DHT22;40860;51.710;8.736;2023-02-07T18:43:23;0.30;96.20
54960;DHT22;40860;51.710;8.736;2023-02-07T18:47:53;0.30;96.10
54960;DHT22;40860;51.710;8.736;2023-02-07T18:57:11;0.10;96.30
54960;DHT22;40860;51.710;8.736;2023-02-07T19:02:24;0.00;96.40
54960;DHT22;40860;51.710;8.736;2023-02-07T19:17:55;0.00;96.90
54960;DHT22;40860;51.710;8.736;2023-02-07T19:32:45;0.00;96.40
54960;DHT22;40860;51.710;8.736;2023-02-07T19:37:54;0.00;96.20
54960;DHT22;40860;51.710;8.736;2023-02-07T19:42:49;0.00;96.10
54960;DHT22;40860;51.710;8.736;2023-02-07T19:48:13;0.00;95.90
54960;DHT22;40860;51.710;8.736;2023-02-07T19:53:35;0.00;95.80
54960;DHT22;40860;51.710;8.736;2023-02-07T19:59:01;0.00;95.70
54960;DHT22;40860;51.710;8.736;2023-02-07T20:03:22;0.10;95.60
54960;DHT22;40860;51.710;8.736;2023-02-07T20:07:47;0.10;95.40
54960;DHT22;40860;51.710;8.736;2023-02-07T20:12:09;0.10;95.00
54960;DHT22;40860;51.710;8.736;2023-02-07T20:16:40;0.20;94.60
54960;DHT22;40860;51.710;8.736;2023-02-07T20:21:25;0.20;94.60
54960;DHT22;40860;51.710;8.736;2023-02-07T20:26:19;0.10;94.60
54960;DHT22;40860;51.710;8.736;2023-02-07T20:37:07;-0.20;95.10
54960;DHT22;40860;51.710;8.736;2023-02-07T20:42:06;-0.40;95.70
54960;DHT22;40860;51.710;8.736;2023-02-07T20:47:35;-0.50;96.00
54960;DHT22;40860;51.710;8.736;2023-02-07T21:04:32;-0.90;96.80
54960;DHT22;40860;51.710;8.736;2023-02-07T21:10:29;-1.00;97.00
54960;DHT22;40860;51.710;8.736;2023-02-07T21:38:52;-1.00;97.50
54960;DHT22;40860;51.710;8.736;2023-02-07T21:44:23;-1.00;97.50
54960;DHT22;40860;51.710;8.736;2023-02-07T21:49:57;-0.80;96.70
54960;DHT22;40860;51.710;8.736;2023-02-07T21:55:29;-0.50;95.60
54960;DHT22;40860;51.710;8.736;2023-02-07T22:05:39;-0.80;96.00
54960;DHT22;40860;51.710;8.736;2023-02-07T22:10:12;-1.00;96.40
54960;DHT22;40860;51.710;8.736;2023-02-07T22:15:10;-1.10;96.60
54960;DHT22;40860;51.710;8.736;2023-02-07T22:19:48;-1.20;97.00
54960;DHT22;40860;51.710;8.736;2023-02-07T22:24:40;-1.30;97.30
54960;DHT22;40860;51.710;8.736;2023-02-07T22:29:18;-1.40;97.40
54960;DHT22;40860;51.710;8.736;2023-02-07T22:34:12;-1.40;97.60
54960;DHT22;40860;51.710;8.736;2023-02-07T22:38:45;-1.50;97.70
54960;DHT22;40860;51.710;8.736;2023-02-07T22:43:38;-1.50;98.00
54960;DHT22;40860;51.710;8.736;2023-02-07T22:48:34;-1.40;97.90
54960;DHT22;40860;51.710;8.736;2023-02-07T22:53:30;-1.40;97.80
54960;DHT22;40860;51.710;8.736;2023-02-07T23:07:59;-1.70;98.50
54960;DHT22;40860;51.710;8.736;2023-02-07T23:13:17;-1.40;98.30
54960;DHT22;40860;51.710;8.736;2023-02-07T23:17:52;-1.30;97.90
54960;DHT22;40860;51.710;8.736;2023-02-07T23:21:56;-1.40;97.70
54960;DHT22;40860;51.710;8.736;2023-02-07T23:26:01;-1.50;97.90
54960;DHT22;40860;51.710;8.736;2023-02-07T23:30:04;-1.60;98.00
54960;DHT22;40860;51.710;8.736;2023-02-07T23:34:08;-1.50;98.00
54960;DHT22;40860;51.710;8.736;2023-02-07T23:38:11;-1.40;97.80
54960;DHT22;40860;51.710;8.736;2023-02-07T23:42:15;-1.30;97.50
54960;DHT22;40860;51.710;8.736;2023-02-07T23:46:18;-1.20;97.20
54960;DHT22;40860;51.710;8.736;2023-02-07T23:50:21;-1.20;97.00
54960;DHT22;40860;51.710;8.736;2023-02-07T23:54:26;-1.40;97.20
54960;DHT22;40860;51.710;8.736;2023-02-07T23:58:31;-1.60;97.60
